NOTICIAS

¡ATENCIÓN! Sistemas actualizados a VAM 2.6, esperamos que os guste. Si encuentras algún error, por favor comunícalo en el Foro VAG.
 METAR AND TAF INFORMATION
METAR FOR LEGR
ADDS - METARS form results

(0655 UTC 23 June 2017)
Data provider http://aviationweather.gov/adds/metars/
 
METAR text: LEGR 230630Z 00000KT CAVOK 21/13 Q1024
Conditions at: LEGR (GRANADA AIRPORT , ES) observed 0630 UTC 23 June 2017
Temperature: 21.0°C (70°F)
Dewpoint: 13.0°C (55°F) [RH = 60%]
Pressure (altimeter): 30.24 inches Hg (1024.0 mb)
Winds: calm
Visibility: 6 or more miles (10+ km)
Ceiling: ceiling and visibility are OK
Clouds: unknown
Weather: no significant weather observed at this time

METAR text: LEGR 230600Z 00000KT CAVOK 20/13 Q1024
Conditions at: LEGR (GRANADA AIRPORT , ES) observed 0600 UTC 23 June 2017
Temperature: 20.0°C (68°F)
Dewpoint: 13.0°C (55°F) [RH = 64%]
Pressure (altimeter): 30.24 inches Hg (1024.0 mb)
Winds: calm
Visibility: 6 or more miles (10+ km)
Ceiling: ceiling and visibility are OK
Clouds: unknown
Weather: no significant weather observed at this time

Forecast for: LEGR (GRANADA AIRPORT , ES)
Text: TAF LEGR 230200Z 2303/2403 VRB02KT CAVOK TX40/2315Z TN18/2305Z
Forecast period: 0300 to 1000 UTC 23 June 2017
Forecast type: FROM: standard forecast or significant change
Winds: variable direction winds at 2 MPH (2 knots; 1.0 m/s)
Visibility: 6 or more miles (10+ km)
Clouds: not forecast
Weather: no significant weather forecast for this period
Text: BECMG 2310/2312 28010KT
Forecast period: 1000 to 2000 UTC 23 June 2017
Forecast type: BECOMING: Conditions expected to become as follows by 1200 UTC 23 June 2017
Winds: from the W (280 degrees) at 12 MPH (10 knots; 5.2 m/s)
Visibility: 6 or more miles (10+ km)
Weather: no significant weather forecast for this period
Text: BECMG 2320/2322 VRB02KT
Forecast period: 2000 UTC 23 June 2017 to 0300 UTC 24 June 2017
Forecast type: BECOMING: Conditions expected to become as follows by 2200 UTC 23 June 2017
Winds: variable direction winds at 2 MPH (2 knots; 1.0 m/s)
Visibility: 6 or more miles (10+ km)
Weather: no significant weather forecast for this period

 AIRPORT MAP

 RUNWAY INFORMATION
Runway 09 Runway length 9514 ft Runway width 148 ft
Runway elevation 1842 ft Runway displaced threshold 0 ft Runway heading 90
Runway 27 Runway length 9514 ft Runway width 148 ft
Runway elevation 1860 ft Runway displaced threshold 0 ft Runway heading 270

 AIRPORT FREQUENCIES
Type GND Name GND Frequency 121.7 MHZ
Type TWR Name TWR Frequency 118.85 MHZ

 AIRPORT NEAR NAVIGATION AIDS
Type VOR-DME Name Granada Frequency 113400 KHZ







Air Nostrum Virtual © 2017

a VAG member

Policy Privacy | Rules | Powered by VAM [V2.6.2] | Customized by Jz © 2017 for Air Nostrum Virtual